Terminal Aerodrome Forecast
Issued by NWS Portland, ME

Home | Current Version | Previous Version | Text Only | Print | Product List | Glossary On
Versions: 1 2 3 4 5 6 7 8 9 10 11 12 13 14 15 16 17 18 19 20
000
FTUS41 KGYX 211126
TAFPWM
TAF
KPWM 211126Z 2112/2212 04005KT P6SM OVC050
     FM211500 08007KT P6SM SHRA OVC025
     FM211800 08008KT 4SM -RA BR OVC010
     FM220200 04012KT 2SM -RA BR OVC007
     FM220900 01012KT 4SM -DZ BR OVC003=

USA.gov is the U.S. government's official web portal to all federal, state and local government web resources and services.